createdAt,value
2019-05-08T00:01:54.421Z,87.10
2019-05-08T00:04:22.612Z,87.20
2019-05-08T00:06:52.129Z,87.40
2019-05-08T00:09:23.061Z,87.30
2019-05-08T00:11:52.621Z,87.00
2019-05-08T00:14:22.626Z,86.90
2019-05-08T00:16:53.729Z,86.90
2019-05-08T00:19:23.341Z,86.90
2019-05-08T00:22:12.355Z,86.90
2019-05-08T00:24:39.934Z,86.80
2019-05-08T00:27:21.660Z,86.60
2019-05-08T00:29:38.890Z,86.40
2019-05-08T00:32:09.406Z,86.60
2019-05-08T00:34:38.503Z,86.80
2019-05-08T00:37:06.927Z,86.90
2019-05-08T00:39:35.362Z,87.10
2019-05-08T00:42:04.076Z,87.30
2019-05-08T00:44:32.514Z,87.40
2019-05-08T00:47:02.772Z,87.90
2019-05-08T00:49:32.687Z,88.00
2019-05-08T00:52:02.477Z,88.20
2019-05-08T00:54:34.467Z,88.20
2019-05-08T00:57:06.037Z,88.10
2019-05-08T00:59:42.251Z,88.20
2019-05-08T01:02:22.581Z,87.80
2019-05-08T01:04:52.267Z,88.10
2019-05-08T01:07:23.052Z,88.10
2019-05-08T01:09:53.026Z,88.00
2019-05-08T01:12:22.866Z,88.10
2019-05-08T01:14:52.314Z,88.00
2019-05-08T01:17:23.132Z,87.90
2019-05-08T01:19:53.018Z,87.90
2019-05-08T01:22:22.229Z,88.00
2019-05-08T01:24:53.435Z,88.10
2019-05-08T01:27:22.321Z,88.40
2019-05-08T01:29:52.938Z,88.90
2019-05-08T01:32:22.624Z,89.20
2019-05-08T01:34:53.143Z,89.20
2019-05-08T01:37:25.640Z,89.10
2019-05-08T01:40:02.633Z,89.10
2019-05-08T01:42:32.877Z,88.80
2019-05-08T01:45:02.994Z,88.90
2019-05-08T01:47:32.393Z,89.20
2019-05-08T01:50:03.118Z,89.60
2019-05-08T01:52:32.681Z,89.90
2019-05-08T01:55:03.165Z,90.00
2019-05-08T01:57:32.342Z,89.80
2019-05-08T02:00:02.379Z,89.80
2019-05-08T02:02:33.168Z,90.10
2019-05-08T02:05:02.727Z,90.10
2019-05-08T02:07:32.822Z,89.90
2019-05-08T02:10:02.749Z,89.70
2019-05-08T02:12:32.424Z,89.60
2019-05-08T02:15:03.281Z,89.60
2019-05-08T02:17:32.670Z,89.50
2019-05-08T02:20:02.922Z,89.40
2019-05-08T02:22:48.039Z,90.10
2019-05-08T02:25:18.101Z,90.10
2019-05-08T02:27:53.954Z,90.00
2019-05-08T02:30:23.778Z,89.90
2019-05-08T02:32:54.291Z,89.90
2019-05-08T02:35:23.525Z,89.90
2019-05-08T02:37:53.070Z,89.90
2019-05-08T02:40:21.589Z,90.10
2019-05-08T02:42:50.933Z,90.10
2019-05-08T02:45:21.610Z,90.20
2019-05-08T02:47:51.064Z,90.20
2019-05-08T02:50:20.874Z,90.10
2019-05-08T02:52:51.209Z,90.10
2019-05-08T02:55:20.209Z,90.10
2019-05-08T02:57:51.562Z,90.00
2019-05-08T03:00:21.045Z,90.00
2019-05-08T03:02:51.605Z,90.00
2019-05-08T03:05:21.369Z,89.90
2019-05-08T03:07:51.049Z,90.00
2019-05-08T03:10:21.065Z,90.10
2019-05-08T03:12:51.140Z,90.10
2019-05-08T03:15:20.180Z,90.20
2019-05-08T03:17:50.460Z,90.30
2019-05-08T03:20:20.310Z,90.20
2019-05-08T03:22:51.106Z,90.50
2019-05-08T03:25:41.153Z,90.30
2019-05-08T03:28:10.638Z,90.50
2019-05-08T03:30:43.763Z,90.50
2019-05-08T03:33:13.294Z,90.50
2019-05-08T03:35:43.752Z,90.50
2019-05-08T03:38:10.954Z,90.40
2019-05-08T03:40:40.500Z,90.70
2019-05-08T03:43:11.188Z,91.00
2019-05-08T03:46:00.530Z,90.70
2019-05-08T03:48:45.383Z,90.70
2019-05-08T03:51:14.240Z,90.90
2019-05-08T03:53:42.706Z,91.00
2019-05-08T03:56:11.510Z,90.80
2019-05-08T03:58:40.900Z,90.30
2019-05-08T04:01:10.319Z,90.70
2019-05-08T04:03:39.995Z,90.60
2019-05-08T04:06:10.767Z,90.70
2019-05-08T04:08:40.226Z,90.80
2019-05-08T04:11:10.343Z,90.70
2019-05-08T04:13:40.653Z,90.70
2019-05-08T04:16:23.919Z,90.60
2019-05-08T04:18:53.446Z,90.60
2019-05-08T04:21:21.882Z,90.90
2019-05-08T04:23:50.469Z,90.90
2019-05-08T04:26:21.112Z,91.00
2019-05-08T04:28:50.542Z,91.10
2019-05-08T04:31:20.403Z,90.80
2019-05-08T04:33:51.359Z,90.70
2019-05-08T04:36:20.984Z,90.70
2019-05-08T04:38:50.622Z,91.00
2019-05-08T04:41:20.081Z,91.60
2019-05-08T04:43:50.540Z,91.80
2019-05-08T04:46:34.066Z,91.80
2019-05-08T04:49:02.823Z,91.90
2019-05-08T04:51:31.257Z,92.00
2019-05-08T04:54:10.316Z,91.90
2019-05-08T04:56:40.740Z,91.70
2019-05-08T04:59:10.501Z,91.70
2019-05-08T05:01:40.727Z,91.50
2019-05-08T05:04:11.348Z,90.70
2019-05-08T05:06:40.953Z,90.60
2019-05-08T05:09:10.776Z,90.40
2019-05-08T05:11:39.821Z,90.20
2019-05-08T05:14:10.178Z,90.40
2019-05-08T05:16:40.674Z,90.10
2019-05-08T05:19:09.562Z,89.70
2019-05-08T05:21:39.431Z,89.10
2019-05-08T05:24:10.286Z,89.50
2019-05-08T05:26:40.723Z,89.40
2019-05-08T05:29:20.466Z,88.80
2019-05-08T05:31:39.638Z,88.50
2019-05-08T05:34:09.781Z,88.40
2019-05-08T05:36:40.067Z,88.50
2019-05-08T05:39:20.132Z,87.80
2019-05-08T05:42:02.506Z,87.70
2019-05-08T05:44:30.967Z,87.40
2019-05-08T05:46:59.881Z,86.60
2019-05-08T05:49:30.010Z,85.10
2019-05-08T05:51:59.745Z,84.90
2019-05-08T05:54:29.374Z,85.30
2019-05-08T05:56:59.481Z,84.90
2019-05-08T05:59:30.233Z,85.20
2019-05-08T06:01:59.731Z,85.20
2019-05-08T06:04:29.550Z,83.80
2019-05-08T06:06:59.949Z,83.10
2019-05-08T06:09:30.179Z,83.00
2019-05-08T06:12:13.720Z,83.10
2019-05-08T06:14:42.211Z,83.60
2019-05-08T06:17:15.178Z,83.50
2019-05-08T06:19:43.656Z,82.70
2019-05-08T06:22:12.146Z,82.60
2019-05-08T06:24:40.616Z,82.70
2019-05-08T06:27:09.694Z,83.10
2019-05-08T06:29:50.216Z,84.10
2019-05-08T06:32:19.372Z,84.30
2019-05-08T06:34:50.100Z,84.10
2019-05-08T06:37:19.871Z,83.60
2019-05-08T06:39:49.987Z,83.20
2019-05-08T06:42:20.785Z,84.20
2019-05-08T06:45:00.113Z,85.00
2019-05-08T06:47:43.695Z,85.40
2019-05-08T06:50:12.714Z,85.50
2019-05-08T06:52:41.154Z,85.40
2019-05-08T06:55:10.543Z,86.20
2019-05-08T06:57:39.462Z,86.30
2019-05-08T07:00:10.233Z,85.90
2019-05-08T07:02:40.230Z,85.90
2019-05-08T07:05:09.619Z,85.70
2019-05-08T07:07:39.269Z,83.90
2019-05-08T07:10:09.476Z,84.80
2019-05-08T07:12:40.040Z,84.80
2019-05-08T07:15:19.034Z,84.40
2019-05-08T07:17:54.640Z,83.20
2019-05-08T07:20:33.528Z,83.50
2019-05-08T07:23:01.975Z,83.20
2019-05-08T07:25:30.440Z,83.90
2019-05-08T07:28:12.491Z,83.10
2019-05-08T07:30:43.810Z,81.40
2019-05-08T07:33:12.249Z,82.50
2019-05-08T07:35:40.677Z,82.90
2019-05-08T07:38:12.236Z,83.00
2019-05-08T07:40:39.447Z,83.20
2019-05-08T07:43:09.266Z,82.60
2019-05-08T07:45:39.789Z,80.90
2019-05-08T07:48:09.975Z,79.60
2019-05-08T07:50:39.128Z,79.50
2019-05-08T07:53:10.928Z,79.70
2019-05-08T07:55:39.363Z,79.20
2019-05-08T07:58:10.183Z,78.00
2019-05-08T08:00:41.720Z,77.90
2019-05-08T08:03:10.737Z,77.30
2019-05-08T08:05:40.890Z,76.30
2019-05-08T08:08:09.900Z,77.00
2019-05-08T08:10:40.255Z,77.70
2019-05-08T08:13:10.078Z,75.90
2019-05-08T08:15:40.342Z,75.50
2019-05-08T08:18:09.808Z,76.20
2019-05-08T08:20:39.353Z,76.60
2019-05-08T08:23:10.026Z,77.00
2019-05-08T08:25:39.164Z,77.30
2019-05-08T08:28:09.624Z,77.20
2019-05-08T08:30:39.926Z,77.70
2019-05-08T08:33:09.829Z,77.90
2019-05-08T08:35:43.609Z,78.30
2019-05-08T08:38:10.201Z,79.10
2019-05-08T08:40:44.149Z,79.50
2019-05-08T08:43:12.890Z,79.90
2019-05-08T08:45:45.678Z,80.30
2019-05-08T08:48:19.879Z,80.80
2019-05-08T08:50:53.285Z,80.90
2019-05-08T08:53:23.354Z,81.00
2019-05-08T08:55:51.826Z,81.20
2019-05-08T08:58:20.720Z,80.70
2019-05-08T09:00:50.064Z,80.80
2019-05-08T09:03:19.645Z,80.60
2019-05-08T09:05:49.108Z,79.80
2019-05-08T09:08:19.723Z,79.10
2019-05-08T09:10:49.549Z,78.70
2019-05-08T09:13:19.354Z,79.20
2019-05-08T09:15:49.107Z,78.90
2019-05-08T09:18:19.556Z,78.70
2019-05-08T09:20:49.580Z,77.80
2019-05-08T09:23:20.622Z,77.30
2019-05-08T09:25:49.166Z,79.20
2019-05-08T09:28:19.939Z,78.80
2019-05-08T09:30:49.963Z,78.80
2019-05-08T09:33:19.635Z,79.50
2019-05-08T09:35:49.871Z,78.60
2019-05-08T09:38:19.930Z,78.40
2019-05-08T09:40:49.194Z,78.90
2019-05-08T09:43:20.080Z,78.70
2019-05-08T09:45:49.449Z,79.30
2019-05-08T09:48:19.167Z,78.80
2019-05-08T09:50:50.347Z,79.20
2019-05-08T09:53:19.467Z,79.50
2019-05-08T09:55:49.544Z,79.70
2019-05-08T09:58:20.652Z,79.30
2019-05-08T10:00:51.386Z,80.00
2019-05-08T10:03:19.838Z,81.20
2019-05-08T10:05:50.233Z,80.30
2019-05-08T10:08:19.688Z,79.80
2019-05-08T10:10:50.193Z,80.20
2019-05-08T10:13:19.551Z,80.70
2019-05-08T10:15:50.129Z,81.10
2019-05-08T10:18:19.260Z,80.60
2019-05-08T10:20:50.036Z,81.30
2019-05-08T10:23:20.394Z,82.10
2019-05-08T10:25:52.033Z,81.70
2019-05-08T10:28:20.851Z,82.00
2019-05-08T10:30:56.549Z,81.40
2019-05-08T10:33:26.566Z,82.20
2019-05-08T10:36:10.170Z,82.30
2019-05-08T10:38:39.462Z,82.50
2019-05-08T10:41:10.345Z,83.50
2019-05-08T10:43:39.868Z,82.90
2019-05-08T10:46:10.175Z,82.60
2019-05-08T10:48:40.178Z,83.00
2019-05-08T10:51:10.167Z,83.40
2019-05-08T10:53:38.948Z,83.20
2019-05-08T10:56:09.327Z,83.40
2019-05-08T10:58:37.642Z,83.40
2019-05-08T11:01:06.118Z,83.70
2019-05-08T11:03:34.579Z,84.10
2019-05-08T11:06:21.473Z,84.00
2019-05-08T11:09:01.005Z,84.20
2019-05-08T11:11:33.760Z,84.50
2019-05-08T11:14:02.215Z,84.20
2019-05-08T11:19:19.201Z,83.90
2019-05-08T11:21:47.125Z,84.20
2019-05-08T11:24:15.661Z,84.00
2019-05-08T11:26:44.143Z,84.50
2019-05-08T11:29:12.614Z,85.20
2019-05-08T11:31:41.205Z,85.30
2019-05-08T11:34:11.787Z,85.30
2019-05-08T11:36:39.869Z,85.40
2019-05-08T11:39:10.058Z,85.20
2019-05-08T11:41:40.474Z,84.20
2019-05-08T11:44:13.568Z,83.50
2019-05-08T11:46:50.146Z,81.60
2019-05-08T11:49:18.902Z,80.50
2019-05-08T11:51:49.195Z,79.30
2019-05-08T11:54:19.995Z,78.30
2019-05-08T11:56:50.019Z,76.40
2019-05-08T11:59:20.422Z,76.20
2019-05-08T12:01:50.169Z,76.80
2019-05-08T12:04:20.105Z,77.20
2019-05-08T12:06:50.422Z,77.40
2019-05-08T12:09:19.788Z,76.60
2019-05-08T12:11:50.300Z,76.90
2019-05-08T12:14:19.489Z,76.60
2019-05-08T12:16:56.448Z,77.90
2019-05-08T12:19:24.983Z,78.50
2019-05-08T12:21:53.438Z,79.40
2019-05-08T12:24:21.949Z,80.30
2019-05-08T12:26:51.324Z,80.70
2019-05-08T12:29:21.528Z,80.80
2019-05-08T12:31:54.203Z,81.20
2019-05-08T12:34:22.058Z,81.70
2019-05-08T12:36:50.577Z,82.80
2019-05-08T12:39:20.168Z,83.40
2019-05-08T12:41:52.107Z,83.50
2019-05-08T12:44:20.922Z,84.60
2019-05-08T12:46:49.391Z,84.80
2019-05-08T12:49:20.854Z,85.40
2019-05-08T12:51:50.888Z,86.20
2019-05-08T12:54:23.813Z,85.60
2019-05-08T12:56:52.258Z,85.50
2019-05-08T12:59:20.720Z,86.50
2019-05-08T13:01:49.224Z,86.70
2019-05-08T13:04:28.160Z,86.60
2019-05-08T13:06:48.889Z,86.70
2019-05-08T13:09:17.698Z,86.80
2019-05-08T13:11:46.205Z,87.00
2019-05-08T13:14:14.662Z,87.80
2019-05-08T13:16:43.101Z,87.10
2019-05-08T13:19:11.627Z,87.60
2019-05-08T13:21:40.295Z,88.30
2019-05-08T13:24:08.981Z,88.80
2019-05-08T13:26:39.595Z,89.30
2019-05-08T13:29:09.641Z,89.70
2019-05-08T13:31:37.808Z,90.10
2019-05-08T13:34:13.243Z,90.10
2019-05-08T13:36:44.555Z,90.50
2019-05-08T13:39:16.301Z,90.30
2019-05-08T13:41:47.015Z,90.10
2019-05-08T13:44:23.445Z,90.00
2019-05-08T13:47:03.016Z,90.10
2019-05-08T13:49:31.530Z,89.80
2019-05-08T13:52:14.851Z,89.70
2019-05-08T13:54:40.244Z,89.80
2019-05-08T13:57:09.371Z,89.40
2019-05-08T13:59:39.726Z,89.50
2019-05-08T14:02:14.468Z,88.90
2019-05-08T14:04:40.745Z,88.60
2019-05-08T14:07:09.301Z,89.30
2019-05-08T14:09:38.002Z,90.10
2019-05-08T14:12:06.563Z,90.20
2019-05-08T14:14:35.397Z,90.70
2019-05-08T14:17:04.957Z,90.70
2019-05-08T14:19:33.559Z,90.10
2019-05-08T14:22:02.092Z,90.50
2019-05-08T14:24:30.881Z,91.10
2019-05-08T14:27:00.173Z,90.70
2019-05-08T14:29:35.116Z,90.30
2019-05-08T14:32:05.644Z,90.00
2019-05-08T14:34:50.988Z,90.10
2019-05-08T14:37:22.430Z,90.40
2019-05-08T14:39:50.498Z,90.30
2019-05-08T14:42:20.341Z,90.40
2019-05-08T14:44:49.521Z,90.10
2019-05-08T14:47:20.039Z,90.40
2019-05-08T14:49:49.938Z,90.30
2019-05-08T14:52:19.766Z,90.30
2019-05-08T14:54:49.604Z,90.40
2019-05-08T14:57:20.024Z,90.60
2019-05-08T14:59:49.871Z,90.60
2019-05-08T15:02:20.979Z,90.20
2019-05-08T15:04:50.443Z,90.20
2019-05-08T15:07:25.173Z,90.60
2019-05-08T15:09:52.750Z,90.50
2019-05-08T15:12:21.295Z,90.30
2019-05-08T15:14:50.039Z,90.10
2019-05-08T15:17:22.177Z,89.60
2019-05-08T15:19:50.834Z,88.70
2019-05-08T15:22:19.577Z,88.40
2019-05-08T15:24:49.684Z,88.00
2019-05-08T15:27:18.401Z,88.10
2019-05-08T15:29:51.580Z,87.40
2019-05-08T15:32:29.666Z,87.30
2019-05-08T15:34:59.547Z,88.50
2019-05-08T15:37:29.747Z,87.60
2019-05-08T15:40:00.631Z,88.50
2019-05-08T15:42:28.517Z,88.50
2019-05-08T15:44:57.088Z,88.20
2019-05-08T15:47:33.114Z,89.60
2019-05-08T15:50:21.163Z,90.10
2019-05-08T15:52:50.177Z,90.10
2019-05-08T15:55:20.602Z,90.30
2019-05-08T15:57:51.305Z,90.00
2019-05-08T16:00:24.048Z,89.90
2019-05-08T16:02:52.630Z,90.10
2019-05-08T16:05:22.741Z,91.00
2019-05-08T16:07:51.589Z,91.10
2019-05-08T16:10:20.455Z,91.60
2019-05-08T16:12:50.315Z,91.70
2019-05-08T16:15:20.887Z,91.50
2019-05-08T16:17:50.709Z,91.10
2019-05-08T16:20:22.116Z,92.60
2019-05-08T16:22:53.802Z,91.80
2019-05-08T16:25:23.481Z,89.30
2019-05-08T16:27:50.783Z,89.90
2019-05-08T16:30:26.777Z,92.00
2019-05-08T16:33:05.996Z,93.70
2019-05-08T16:35:34.115Z,94.30
2019-05-08T16:38:03.653Z,94.10
2019-05-08T16:40:33.969Z,94.70
2019-05-08T16:43:03.614Z,95.20
2019-05-08T16:45:34.007Z,95.40
2019-05-08T16:48:04.297Z,95.40
2019-05-08T16:50:40.178Z,95.90
2019-05-08T16:53:08.749Z,95.70
2019-05-08T16:55:37.668Z,95.60
2019-05-08T16:58:06.142Z,95.10
2019-05-08T17:00:35.809Z,95.30
2019-05-08T17:03:13.811Z,95.30
2019-05-08T17:05:58.185Z,95.60
2019-05-08T17:08:27.068Z,95.90
2019-05-08T17:10:55.937Z,95.50
2019-05-08T17:13:24.475Z,95.20
2019-05-08T17:15:54.019Z,95.80
2019-05-08T17:18:23.009Z,96.20
2019-05-08T17:20:53.565Z,96.30
2019-05-08T17:23:39.884Z,95.70
2019-05-08T17:26:08.449Z,95.40
2019-05-08T17:28:41.226Z,95.40
2019-05-08T17:31:11.350Z,95.30
2019-05-08T17:33:39.824Z,95.30
2019-05-08T17:36:10.061Z,95.20
2019-05-08T17:38:43.500Z,94.70
2019-05-08T17:41:13.453Z,94.60
2019-05-08T17:43:43.893Z,94.70
2019-05-08T17:46:20.403Z,95.10
2019-05-08T17:48:49.406Z,95.30
2019-05-08T17:51:17.929Z,95.40
2019-05-08T17:53:46.893Z,95.10
2019-05-08T17:56:15.457Z,94.70
2019-05-08T17:58:44.202Z,94.80
2019-05-08T18:01:14.714Z,94.50
2019-05-08T18:03:43.590Z,94.40
2019-05-08T18:06:13.296Z,94.70
2019-05-08T18:08:43.831Z,94.80
2019-05-08T18:11:13.590Z,95.00
2019-05-08T18:13:43.772Z,94.90
2019-05-08T18:16:14.579Z,94.90
2019-05-08T18:18:44.825Z,94.80
2019-05-08T18:21:17.990Z,94.50
2019-05-08T18:23:56.129Z,94.60
2019-05-08T18:26:26.303Z,94.70
2019-05-08T18:29:09.187Z,95.00
2019-05-08T18:31:44.807Z,94.90
2019-05-08T18:34:15.093Z,94.80
2019-05-08T18:36:43.596Z,94.70
2019-05-08T18:39:13.839Z,93.90
2019-05-08T18:41:43.538Z,93.70
2019-05-08T18:44:15.251Z,93.70
2019-05-08T18:46:44.184Z,94.30
2019-05-08T18:49:13.585Z,93.90
2019-05-08T18:51:43.335Z,94.00
2019-05-08T18:54:14.457Z,94.20
2019-05-08T18:56:43.774Z,94.40
2019-05-08T18:59:14.011Z,94.70
2019-05-08T19:01:47.189Z,95.20
2019-05-08T19:04:15.729Z,95.10
2019-05-08T19:06:44.300Z,95.10
2019-05-08T19:09:23.586Z,95.50
2019-05-08T19:11:51.972Z,95.50
2019-05-08T19:14:20.677Z,95.80
2019-05-08T19:16:49.581Z,95.70
2019-05-08T19:19:24.650Z,96.10
2019-05-08T19:21:54.181Z,96.70
2019-05-08T19:24:23.212Z,96.50
2019-05-08T19:26:51.454Z,96.60
2019-05-08T19:29:19.977Z,96.70
2019-05-08T19:31:48.534Z,96.50
2019-05-08T19:34:17.006Z,96.30
2019-05-08T19:36:45.501Z,96.40
2019-05-08T19:39:14.021Z,96.30
2019-05-08T19:41:43.363Z,96.50
2019-05-08T19:44:14.286Z,96.20
2019-05-08T19:46:43.957Z,96.10
2019-05-08T19:49:13.252Z,95.50
2019-05-08T19:51:44.464Z,95.30
2019-05-08T19:54:13.200Z,94.40
2019-05-08T19:56:43.688Z,94.50
2019-05-08T19:59:12.487Z,94.10
2019-05-08T20:01:43.423Z,93.60
2019-05-08T20:04:11.258Z,93.00
2019-05-08T20:06:40.159Z,92.00
2019-05-08T20:09:09.093Z,91.40
2019-05-08T20:11:37.573Z,91.10
2019-05-08T20:14:06.302Z,91.50
2019-05-08T20:16:34.853Z,90.90
2019-05-08T20:19:05.425Z,90.70
2019-05-08T20:21:38.337Z,90.50
2019-05-08T20:24:07.207Z,90.60
2019-05-08T20:26:36.099Z,90.80
2019-05-08T20:29:05.281Z,90.80
2019-05-08T20:31:35.945Z,90.10
2019-05-08T20:34:04.535Z,90.10
2019-05-08T20:36:34.413Z,90.00
2019-05-08T20:39:13.079Z,89.80
2019-05-08T20:41:43.077Z,89.50
2019-05-08T20:44:14.530Z,89.60
2019-05-08T20:46:43.320Z,89.70
2019-05-08T20:49:13.970Z,88.40
2019-05-08T20:51:44.082Z,88.60
2019-05-08T20:54:13.271Z,88.40
2019-05-08T20:56:43.404Z,88.30
2019-05-08T20:59:13.453Z,88.40
2019-05-08T21:01:44.341Z,88.00
2019-05-08T21:04:13.105Z,88.20
2019-05-08T21:06:43.573Z,88.30
2019-05-08T21:09:14.188Z,88.20
2019-05-08T21:11:44.603Z,88.20
2019-05-08T21:14:13.144Z,88.50
2019-05-08T21:16:43.454Z,88.30
2019-05-08T21:19:13.245Z,88.10
2019-05-08T21:21:46.353Z,87.90
2019-05-08T21:24:14.841Z,87.90
2019-05-08T21:26:44.262Z,87.90
2019-05-08T21:29:14.970Z,87.60
2019-05-08T21:31:44.133Z,87.70
2019-05-08T21:34:13.263Z,87.10
2019-05-08T21:36:43.778Z,86.60
2019-05-08T21:39:21.235Z,86.80
2019-05-08T21:41:42.115Z,86.80
2019-05-08T21:44:10.646Z,86.80
2019-05-08T21:46:39.190Z,87.00
2019-05-08T21:49:07.673Z,86.70
2019-05-08T21:51:36.142Z,86.50
2019-05-08T21:54:04.704Z,86.60
2019-05-08T21:56:34.018Z,86.40
2019-05-08T21:59:04.204Z,85.80
2019-05-08T22:01:35.348Z,86.30
2019-05-08T22:04:03.917Z,86.40
2019-05-08T22:06:33.839Z,85.80
2019-05-08T22:09:05.228Z,86.40
2019-05-08T22:11:33.704Z,86.30
2019-05-08T22:14:04.004Z,86.00
2019-05-08T22:16:33.729Z,86.00
2019-05-08T22:19:03.817Z,85.70
2019-05-08T22:21:33.622Z,85.80
2019-05-08T22:24:04.027Z,86.30
2019-05-08T22:26:34.061Z,86.40
2019-05-08T22:29:03.285Z,86.20
2019-05-08T22:31:34.301Z,86.30
2019-05-08T22:34:04.929Z,86.30
2019-05-08T22:36:37.834Z,86.20
2019-05-08T22:39:18.043Z,86.30
2019-05-08T22:41:46.876Z,86.00
2019-05-08T22:44:15.376Z,85.90
2019-05-08T22:46:44.153Z,85.40
2019-05-08T22:49:13.564Z,85.70
2019-05-08T22:51:44.406Z,85.90
2019-05-08T22:54:14.193Z,86.20
2019-05-08T22:56:43.307Z,86.50
2019-05-08T22:59:14.053Z,86.40
2019-05-08T23:01:43.397Z,86.50
2019-05-08T23:04:12.101Z,86.40
2019-05-08T23:06:40.585Z,86.60
2019-05-08T23:09:10.700Z,86.90
2019-05-08T23:11:39.184Z,87.70
2019-05-08T23:14:07.674Z,88.50
2019-05-08T23:16:36.124Z,89.10
2019-05-08T23:19:04.617Z,89.60
2019-05-08T23:21:33.415Z,90.00
2019-05-08T23:24:03.134Z,90.40
2019-05-08T23:26:34.278Z,90.70
2019-05-08T23:29:03.304Z,91.30
2019-05-08T23:31:33.597Z,91.60
2019-05-08T23:34:04.109Z,91.90
2019-05-08T23:36:34.309Z,92.10
2019-05-08T23:39:03.893Z,91.50
2019-05-08T23:41:32.935Z,91.20
2019-05-08T23:44:06.094Z,90.20
2019-05-08T23:46:36.424Z,90.40
2019-05-08T23:49:05.022Z,90.20
2019-05-08T23:51:33.938Z,90.10
2019-05-08T23:54:04.216Z,90.10
2019-05-08T23:56:33.530Z,89.90
2019-05-08T23:59:04.266Z,90.60
